sensor_id;sensor_type;location;lat;lon;timestamp;P1;durP1;ratioP1;P2;durP2;ratioP2
80185;SDS011;69904;52.122;5.422;2023-07-09T00:01:22;9.82;;;6.03;;
80185;SDS011;69904;52.122;5.422;2023-07-09T00:03:48;11.07;;;6.32;;
80185;SDS011;69904;52.122;5.422;2023-07-09T00:06:18;11.30;;;6.18;;
80185;SDS011;69904;52.122;5.422;2023-07-09T00:08:47;10.60;;;6.80;;
80185;SDS011;69904;52.122;5.422;2023-07-09T00:11:15;9.98;;;6.28;;
80185;SDS011;69904;52.122;5.422;2023-07-09T00:13:42;11.55;;;6.82;;
80185;SDS011;69904;52.122;5.422;2023-07-09T00:16:13;9.98;;;6.10;;
80185;SDS011;69904;52.122;5.422;2023-07-09T00:18:43;15.15;;;7.80;;
80185;SDS011;69904;52.122;5.422;2023-07-09T00:21:09;16.48;;;7.00;;
80185;SDS011;69904;52.122;5.422;2023-07-09T00:23:36;10.40;;;6.63;;
80185;SDS011;69904;52.122;5.422;2023-07-09T00:26:13;12.18;;;6.82;;
80185;SDS011;69904;52.122;5.422;2023-07-09T00:28:44;12.05;;;6.78;;
80185;SDS011;69904;52.122;5.422;2023-07-09T00:31:11;11.02;;;7.03;;
80185;SDS011;69904;52.122;5.422;2023-07-09T00:33:41;10.88;;;6.43;;
80185;SDS011;69904;52.122;5.422;2023-07-09T00:36:28;17.52;;;7.97;;
80185;SDS011;69904;52.122;5.422;2023-07-09T00:38:57;12.75;;;7.53;;
80185;SDS011;69904;52.122;5.422;2023-07-09T00:41:34;13.60;;;7.50;;
80185;SDS011;69904;52.122;5.422;2023-07-09T00:49:27;12.23;;;8.00;;
80185;SDS011;69904;52.122;5.422;2023-07-09T00:51:56;13.05;;;7.68;;
80185;SDS011;69904;52.122;5.422;2023-07-09T00:54:32;12.95;;;7.68;;
80185;SDS011;69904;52.122;5.422;2023-07-09T00:57:10;11.95;;;7.75;;
80185;SDS011;69904;52.122;5.422;2023-07-09T00:59:45;13.20;;;7.40;;
80185;SDS011;69904;52.122;5.422;2023-07-09T01:02:16;12.95;;;7.90;;
80185;SDS011;69904;52.122;5.422;2023-07-09T01:04:44;11.27;;;7.82;;
80185;SDS011;69904;52.122;5.422;2023-07-09T01:07:10;14.35;;;8.05;;
80185;SDS011;69904;52.122;5.422;2023-07-09T01:09:37;15.23;;;8.05;;
80185;SDS011;69904;52.122;5.422;2023-07-09T01:12:07;14.57;;;8.65;;
80185;SDS011;69904;52.122;5.422;2023-07-09T01:14:36;13.20;;;8.70;;
80185;SDS011;69904;52.122;5.422;2023-07-09T01:17:05;11.95;;;7.63;;
80185;SDS011;69904;52.122;5.422;2023-07-09T01:19:40;12.77;;;7.30;;
80185;SDS011;69904;52.122;5.422;2023-07-09T01:22:14;12.48;;;7.47;;
80185;SDS011;69904;52.122;5.422;2023-07-09T01:24:47;14.40;;;7.65;;
80185;SDS011;69904;52.122;5.422;2023-07-09T01:27:16;13.07;;;8.23;;
80185;SDS011;69904;52.122;5.422;2023-07-09T01:29:45;12.15;;;7.20;;
80185;SDS011;69904;52.122;5.422;2023-07-09T01:32:18;14.77;;;8.15;;
80185;SDS011;69904;52.122;5.422;2023-07-09T01:34:46;13.88;;;8.05;;
80185;SDS011;69904;52.122;5.422;2023-07-09T01:37:15;13.60;;;7.75;;
80185;SDS011;69904;52.122;5.422;2023-07-09T01:39:48;11.30;;;7.50;;
80185;SDS011;69904;52.122;5.422;2023-07-09T01:42:17;10.65;;;7.03;;
80185;SDS011;69904;52.122;5.422;2023-07-09T01:44:44;13.32;;;7.60;;
80185;SDS011;69904;52.122;5.422;2023-07-09T01:47:13;12.32;;;8.18;;
80185;SDS011;69904;52.122;5.422;2023-07-09T01:49:40;14.35;;;8.07;;
80185;SDS011;69904;52.122;5.422;2023-07-09T01:52:07;13.50;;;8.20;;
80185;SDS011;69904;52.122;5.422;2023-07-09T01:54:39;12.40;;;8.00;;
80185;SDS011;69904;52.122;5.422;2023-07-09T01:57:48;12.25;;;7.72;;
80185;SDS011;69904;52.122;5.422;2023-07-09T02:00:03;11.13;;;7.03;;
80185;SDS011;69904;52.122;5.422;2023-07-09T02:02:31;13.05;;;7.18;;
80185;SDS011;69904;52.122;5.422;2023-07-09T02:04:58;9.77;;;6.93;;
80185;SDS011;69904;52.122;5.422;2023-07-09T02:07:27;16.70;;;7.18;;
80185;SDS011;69904;52.122;5.422;2023-07-09T02:09:54;12.60;;;6.80;;
80185;SDS011;69904;52.122;5.422;2023-07-09T02:12:21;12.57;;;8.00;;
80185;SDS011;69904;52.122;5.422;2023-07-09T02:17:13;11.90;;;7.75;;
80185;SDS011;69904;52.122;5.422;2023-07-09T02:19:41;14.68;;;7.55;;
80185;SDS011;69904;52.122;5.422;2023-07-09T02:22:07;13.32;;;6.88;;
80185;SDS011;69904;52.122;5.422;2023-07-09T02:24:34;11.93;;;7.68;;
80185;SDS011;69904;52.122;5.422;2023-07-09T02:27:02;14.35;;;8.65;;
80185;SDS011;69904;52.122;5.422;2023-07-09T02:29:31;10.98;;;6.97;;
80185;SDS011;69904;52.122;5.422;2023-07-09T02:31:58;11.38;;;6.53;;
80185;SDS011;69904;52.122;5.422;2023-07-09T02:34:27;11.10;;;7.15;;
80185;SDS011;69904;52.122;5.422;2023-07-09T02:36:55;10.45;;;7.45;;
80185;SDS011;69904;52.122;5.422;2023-07-09T02:39:23;12.32;;;7.05;;
80185;SDS011;69904;52.122;5.422;2023-07-09T02:41:50;10.10;;;7.13;;
80185;SDS011;69904;52.122;5.422;2023-07-09T02:44:16;13.57;;;7.47;;
80185;SDS011;69904;52.122;5.422;2023-07-09T02:46:43;12.23;;;7.40;;
80185;SDS011;69904;52.122;5.422;2023-07-09T02:49:11;13.32;;;7.35;;
80185;SDS011;69904;52.122;5.422;2023-07-09T02:51:39;12.43;;;8.02;;
80185;SDS011;69904;52.122;5.422;2023-07-09T02:54:06;14.82;;;7.95;;
80185;SDS011;69904;52.122;5.422;2023-07-09T02:56:33;11.48;;;7.32;;
80185;SDS011;69904;52.122;5.422;2023-07-09T03:01:26;10.52;;;6.90;;
80185;SDS011;69904;52.122;5.422;2023-07-09T03:03:54;11.48;;;7.72;;
80185;SDS011;69904;52.122;5.422;2023-07-09T03:06:21;10.77;;;6.82;;
80185;SDS011;69904;52.122;5.422;2023-07-09T03:08:49;11.77;;;7.72;;
80185;SDS011;69904;52.122;5.422;2023-07-09T03:11:18;10.93;;;7.20;;
80185;SDS011;69904;52.122;5.422;2023-07-09T03:13:45;11.77;;;7.40;;
80185;SDS011;69904;52.122;5.422;2023-07-09T03:16:12;11.63;;;7.15;;
80185;SDS011;69904;52.122;5.422;2023-07-09T03:18:39;15.57;;;7.45;;
80185;SDS011;69904;52.122;5.422;2023-07-09T03:21:06;10.13;;;7.18;;
80185;SDS011;69904;52.122;5.422;2023-07-09T03:25:59;13.60;;;7.38;;
80185;SDS011;69904;52.122;5.422;2023-07-09T03:28:26;11.35;;;6.75;;
80185;SDS011;69904;52.122;5.422;2023-07-09T03:30:53;10.68;;;6.47;;
80185;SDS011;69904;52.122;5.422;2023-07-09T03:33:21;15.32;;;6.60;;
80185;SDS011;69904;52.122;5.422;2023-07-09T03:35:49;13.13;;;6.95;;
80185;SDS011;69904;52.122;5.422;2023-07-09T03:38:17;11.32;;;6.85;;
80185;SDS011;69904;52.122;5.422;2023-07-09T03:40:44;13.25;;;6.55;;
80185;SDS011;69904;52.122;5.422;2023-07-09T03:43:11;12.18;;;7.50;;
80185;SDS011;69904;52.122;5.422;2023-07-09T03:45:37;14.00;;;7.05;;
80185;SDS011;69904;52.122;5.422;2023-07-09T03:48:04;9.82;;;7.07;;
80185;SDS011;69904;52.122;5.422;2023-07-09T03:50:32;10.65;;;6.10;;
80185;SDS011;69904;52.122;5.422;2023-07-09T03:52:59;12.23;;;6.88;;
80185;SDS011;69904;52.122;5.422;2023-07-09T03:55:26;9.20;;;6.20;;
80185;SDS011;69904;52.122;5.422;2023-07-09T03:57:53;10.20;;;6.18;;
80185;SDS011;69904;52.122;5.422;2023-07-09T04:00:21;10.98;;;6.40;;
80185;SDS011;69904;52.122;5.422;2023-07-09T04:02:48;10.10;;;6.53;;
80185;SDS011;69904;52.122;5.422;2023-07-09T04:05:14;11.05;;;6.25;;
80185;SDS011;69904;52.122;5.422;2023-07-09T04:07:42;11.93;;;6.82;;
80185;SDS011;69904;52.122;5.422;2023-07-09T04:10:09;12.25;;;6.20;;
80185;SDS011;69904;52.122;5.422;2023-07-09T04:12:36;10.13;;;6.50;;
80185;SDS011;69904;52.122;5.422;2023-07-09T04:15:04;9.52;;;5.88;;
80185;SDS011;69904;52.122;5.422;2023-07-09T04:17:31;13.85;;;6.85;;
80185;SDS011;69904;52.122;5.422;2023-07-09T04:19:59;10.10;;;6.18;;
80185;SDS011;69904;52.122;5.422;2023-07-09T04:22:25;8.23;;;5.32;;
80185;SDS011;69904;52.122;5.422;2023-07-09T04:27:18;12.25;;;6.70;;
80185;SDS011;69904;52.122;5.422;2023-07-09T04:29:45;8.40;;;5.82;;
80185;SDS011;69904;52.122;5.422;2023-07-09T04:32:13;10.55;;;6.28;;
80185;SDS011;69904;52.122;5.422;2023-07-09T04:34:41;7.45;;;5.28;;
80185;SDS011;69904;52.122;5.422;2023-07-09T04:37:08;9.15;;;6.28;;
80185;SDS011;69904;52.122;5.422;2023-07-09T04:39:36;9.90;;;5.55;;
80185;SDS011;69904;52.122;5.422;2023-07-09T04:44:29;9.43;;;6.28;;
80185;SDS011;69904;52.122;5.422;2023-07-09T04:46:55;9.60;;;5.15;;
80185;SDS011;69904;52.122;5.422;2023-07-09T04:49:22;9.38;;;5.60;;
80185;SDS011;69904;52.122;5.422;2023-07-09T04:51:49;9.07;;;5.55;;
80185;SDS011;69904;52.122;5.422;2023-07-09T04:56:42;9.32;;;6.60;;
80185;SDS011;69904;52.122;5.422;2023-07-09T04:59:11;11.10;;;6.38;;
80185;SDS011;69904;52.122;5.422;2023-07-09T05:01:38;11.23;;;6.75;;
80185;SDS011;69904;52.122;5.422;2023-07-09T05:04:05;9.70;;;6.60;;
80185;SDS011;69904;52.122;5.422;2023-07-09T05:06:31;10.82;;;6.88;;
80185;SDS011;69904;52.122;5.422;2023-07-09T05:08:58;9.07;;;6.45;;
80185;SDS011;69904;52.122;5.422;2023-07-09T05:13:50;10.07;;;6.75;;
80185;SDS011;69904;52.122;5.422;2023-07-09T05:16:19;10.57;;;6.55;;
80185;SDS011;69904;52.122;5.422;2023-07-09T05:18:46;10.38;;;7.25;;
80185;SDS011;69904;52.122;5.422;2023-07-09T05:23:39;12.93;;;7.22;;
80185;SDS011;69904;52.122;5.422;2023-07-09T05:28:32;13.07;;;8.02;;
80185;SDS011;69904;52.122;5.422;2023-07-09T05:31:01;13.32;;;7.90;;
80185;SDS011;69904;52.122;5.422;2023-07-09T05:33:28;10.45;;;7.00;;
80185;SDS011;69904;52.122;5.422;2023-07-09T05:35:54;11.68;;;8.57;;
80185;SDS011;69904;52.122;5.422;2023-07-09T05:38:22;13.00;;;8.82;;
80185;SDS011;69904;52.122;5.422;2023-07-09T05:40:57;12.77;;;8.55;;
80185;SDS011;69904;52.122;5.422;2023-07-09T05:43:25;15.25;;;8.20;;
80185;SDS011;69904;52.122;5.422;2023-07-09T05:45:52;10.35;;;7.93;;
80185;SDS011;69904;52.122;5.422;2023-07-09T05:48:18;11.75;;;8.07;;
80185;SDS011;69904;52.122;5.422;2023-07-09T05:50:45;14.32;;;9.45;;
80185;SDS011;69904;52.122;5.422;2023-07-09T05:53:15;17.17;;;10.30;;
80185;SDS011;69904;52.122;5.422;2023-07-09T05:58:08;15.27;;;9.10;;
80185;SDS011;69904;52.122;5.422;2023-07-09T06:00:34;16.33;;;9.45;;
80185;SDS011;69904;52.122;5.422;2023-07-09T06:03:03;15.52;;;9.50;;
80185;SDS011;69904;52.122;5.422;2023-07-09T06:05:34;12.82;;;9.10;;
80185;SDS011;69904;52.122;5.422;2023-07-09T06:08:00;12.13;;;9.60;;
80185;SDS011;69904;52.122;5.422;2023-07-09T06:10:27;13.35;;;10.07;;
80185;SDS011;69904;52.122;5.422;2023-07-09T06:12:54;15.93;;;10.43;;
80185;SDS011;69904;52.122;5.422;2023-07-09T06:15:20;13.40;;;9.30;;
80185;SDS011;69904;52.122;5.422;2023-07-09T06:17:47;16.42;;;10.32;;
80185;SDS011;69904;52.122;5.422;2023-07-09T06:20:13;18.65;;;9.80;;
80185;SDS011;69904;52.122;5.422;2023-07-09T06:22:40;15.13;;;9.80;;
80185;SDS011;69904;52.122;5.422;2023-07-09T06:25:07;14.75;;;9.98;;
80185;SDS011;69904;52.122;5.422;2023-07-09T06:27:34;19.40;;;10.38;;
80185;SDS011;69904;52.122;5.422;2023-07-09T06:30:00;16.17;;;10.35;;
80185;SDS011;69904;52.122;5.422;2023-07-09T06:32:27;18.77;;;11.15;;
80185;SDS011;69904;52.122;5.422;2023-07-09T06:34:53;17.83;;;12.02;;
80185;SDS011;69904;52.122;5.422;2023-07-09T06:37:20;12.95;;;9.52;;
80185;SDS011;69904;52.122;5.422;2023-07-09T06:39:46;19.02;;;11.57;;
80185;SDS011;69904;52.122;5.422;2023-07-09T06:42:13;19.08;;;11.95;;
80185;SDS011;69904;52.122;5.422;2023-07-09T06:44:39;18.63;;;11.07;;
80185;SDS011;69904;52.122;5.422;2023-07-09T06:47:06;17.10;;;10.60;;
80185;SDS011;69904;52.122;5.422;2023-07-09T06:49:33;18.08;;;10.98;;
80185;SDS011;69904;52.122;5.422;2023-07-09T06:51:59;17.13;;;11.27;;
80185;SDS011;69904;52.122;5.422;2023-07-09T06:54:25;17.48;;;11.93;;
80185;SDS011;69904;52.122;5.422;2023-07-09T06:56:52;19.02;;;11.68;;
80185;SDS011;69904;52.122;5.422;2023-07-09T06:59:19;14.65;;;10.60;;
80185;SDS011;69904;52.122;5.422;2023-07-09T07:01:45;18.77;;;12.40;;
80185;SDS011;69904;52.122;5.422;2023-07-09T07:04:13;20.10;;;12.35;;
80185;SDS011;69904;52.122;5.422;2023-07-09T07:06:41;18.45;;;11.30;;
80185;SDS011;69904;52.122;5.422;2023-07-09T07:09:08;19.08;;;12.18;;
80185;SDS011;69904;52.122;5.422;2023-07-09T07:11:34;18.02;;;11.63;;
80185;SDS011;69904;52.122;5.422;2023-07-09T07:14:01;18.83;;;12.40;;
80185;SDS011;69904;52.122;5.422;2023-07-09T07:16:27;20.25;;;12.25;;
80185;SDS011;69904;52.122;5.422;2023-07-09T07:18:54;24.52;;;12.93;;
80185;SDS011;69904;52.122;5.422;2023-07-09T07:21:20;18.27;;;12.35;;
80185;SDS011;69904;52.122;5.422;2023-07-09T07:23:47;18.60;;;12.48;;
80185;SDS011;69904;52.122;5.422;2023-07-09T07:26:13;18.80;;;10.73;;
80185;SDS011;69904;52.122;5.422;2023-07-09T07:28:40;17.40;;;11.93;;
80185;SDS011;69904;52.122;5.422;2023-07-09T07:31:07;18.25;;;10.88;;
80185;SDS011;69904;52.122;5.422;2023-07-09T07:33:35;16.05;;;10.95;;
80185;SDS011;69904;52.122;5.422;2023-07-09T07:36:05;16.83;;;10.57;;
80185;SDS011;69904;52.122;5.422;2023-07-09T07:40:05;18.88;;;11.63;;
80185;SDS011;69904;52.122;5.422;2023-07-09T07:42:32;15.98;;;9.93;;
80185;SDS011;69904;52.122;5.422;2023-07-09T07:44:59;18.63;;;11.20;;
80185;SDS011;69904;52.122;5.422;2023-07-09T07:47:26;16.52;;;11.00;;
80185;SDS011;69904;52.122;5.422;2023-07-09T07:49:56;16.35;;;9.52;;
80185;SDS011;69904;52.122;5.422;2023-07-09T07:52:23;15.02;;;9.18;;
80185;SDS011;69904;52.122;5.422;2023-07-09T07:54:51;15.50;;;7.72;;
80185;SDS011;69904;52.122;5.422;2023-07-09T07:57:18;12.75;;;8.65;;
80185;SDS011;69904;52.122;5.422;2023-07-09T07:59:45;12.73;;;7.28;;
80185;SDS011;69904;52.122;5.422;2023-07-09T08:02:13;16.40;;;9.32;;
80185;SDS011;69904;52.122;5.422;2023-07-09T08:04:40;14.50;;;9.75;;
80185;SDS011;69904;52.122;5.422;2023-07-09T08:07:08;15.65;;;10.15;;
80185;SDS011;69904;52.122;5.422;2023-07-09T08:09:36;16.48;;;8.75;;
80185;SDS011;69904;52.122;5.422;2023-07-09T08:12:03;14.95;;;8.80;;
80185;SDS011;69904;52.122;5.422;2023-07-09T08:14:40;12.27;;;7.72;;
80185;SDS011;69904;52.122;5.422;2023-07-09T08:17:07;13.75;;;7.95;;
80185;SDS011;69904;52.122;5.422;2023-07-09T08:19:44;11.32;;;7.80;;
80185;SDS011;69904;52.122;5.422;2023-07-09T08:22:12;14.45;;;8.55;;
80185;SDS011;69904;52.122;5.422;2023-07-09T08:24:39;11.13;;;6.45;;
80185;SDS011;69904;52.122;5.422;2023-07-09T08:27:06;11.57;;;6.88;;
80185;SDS011;69904;52.122;5.422;2023-07-09T08:29:33;14.50;;;8.38;;
80185;SDS011;69904;52.122;5.422;2023-07-09T08:32:01;11.93;;;7.60;;
80185;SDS011;69904;52.122;5.422;2023-07-09T08:34:28;13.35;;;8.00;;
80185;SDS011;69904;52.122;5.422;2023-07-09T08:36:55;13.98;;;7.40;;
80185;SDS011;69904;52.122;5.422;2023-07-09T08:39:21;13.73;;;7.28;;
80185;SDS011;69904;52.122;5.422;2023-07-09T08:41:49;9.65;;;7.03;;
80185;SDS011;69904;52.122;5.422;2023-07-09T08:44:30;10.40;;;6.70;;
80185;SDS011;69904;52.122;5.422;2023-07-09T08:47:16;12.57;;;6.70;;
80185;SDS011;69904;52.122;5.422;2023-07-09T08:49:55;9.95;;;6.00;;
80185;SDS011;69904;52.122;5.422;2023-07-09T08:52:28;11.02;;;6.15;;
80185;SDS011;69904;52.122;5.422;2023-07-09T08:54:59;9.68;;;6.35;;
80185;SDS011;69904;52.122;5.422;2023-07-09T08:57:43;10.20;;;5.47;;
80185;SDS011;69904;52.122;5.422;2023-07-09T09:02:50;9.77;;;5.72;;
80185;SDS011;69904;52.122;5.422;2023-07-09T09:05:21;9.75;;;5.78;;
80185;SDS011;69904;52.122;5.422;2023-07-09T09:07:56;9.32;;;5.57;;
80185;SDS011;69904;52.122;5.422;2023-07-09T09:10:33;10.52;;;5.20;;
80185;SDS011;69904;52.122;5.422;2023-07-09T09:13:10;8.73;;;5.60;;
80185;SDS011;69904;52.122;5.422;2023-07-09T09:15:39;9.27;;;5.07;;
80185;SDS011;69904;52.122;5.422;2023-07-09T09:18:22;9.52;;;5.22;;
80185;SDS011;69904;52.122;5.422;2023-07-09T09:23:46;9.52;;;5.22;;
80185;SDS011;69904;52.122;5.422;2023-07-09T09:26:32;9.77;;;4.95;;
80185;SDS011;69904;52.122;5.422;2023-07-09T09:29:00;10.02;;;4.80;;
80185;SDS011;69904;52.122;5.422;2023-07-09T09:31:37;7.13;;;4.72;;
80185;SDS011;69904;52.122;5.422;2023-07-09T09:34:03;8.27;;;5.25;;
80185;SDS011;69904;52.122;5.422;2023-07-09T09:36:36;8.52;;;4.78;;
80185;SDS011;69904;52.122;5.422;2023-07-09T09:41:30;8.68;;;4.80;;
80185;SDS011;69904;52.122;5.422;2023-07-09T09:44:01;9.30;;;5.45;;
80185;SDS011;69904;52.122;5.422;2023-07-09T09:46:30;7.68;;;4.90;;
80185;SDS011;69904;52.122;5.422;2023-07-09T09:48:59;8.55;;;4.70;;
80185;SDS011;69904;52.122;5.422;2023-07-09T09:51:27;8.45;;;4.70;;
80185;SDS011;69904;52.122;5.422;2023-07-09T09:53:57;9.43;;;4.57;;
80185;SDS011;69904;52.122;5.422;2023-07-09T09:56:29;8.10;;;5.03;;
80185;SDS011;69904;52.122;5.422;2023-07-09T09:58:59;9.38;;;4.80;;
80185;SDS011;69904;52.122;5.422;2023-07-09T10:01:27;10.40;;;4.70;;
80185;SDS011;69904;52.122;5.422;2023-07-09T10:04:01;6.93;;;4.65;;
80185;SDS011;69904;52.122;5.422;2023-07-09T10:06:37;6.07;;;4.75;;
80185;SDS011;69904;52.122;5.422;2023-07-09T10:09:11;7.05;;;4.20;;
80185;SDS011;69904;52.122;5.422;2023-07-09T10:15:05;8.55;;;4.55;;
80185;SDS011;69904;52.122;5.422;2023-07-09T10:20:18;9.65;;;4.63;;
80185;SDS011;69904;52.122;5.422;2023-07-09T10:25:30;6.53;;;3.65;;
80185;SDS011;69904;52.122;5.422;2023-07-09T10:37:08;7.57;;;4.38;;
80185;SDS011;69904;52.122;5.422;2023-07-09T10:39:49;8.75;;;4.10;;
80185;SDS011;69904;52.122;5.422;2023-07-09T10:42:32;6.65;;;4.38;;
80185;SDS011;69904;52.122;5.422;2023-07-09T10:45:16;5.97;;;4.00;;
80185;SDS011;69904;52.122;5.422;2023-07-09T10:47:48;7.85;;;5.93;;
80185;SDS011;69904;52.122;5.422;2023-07-09T10:50:27;9.75;;;6.07;;
80185;SDS011;69904;52.122;5.422;2023-07-09T10:52:55;10.20;;;6.25;;
80185;SDS011;69904;52.122;5.422;2023-07-09T10:55:32;10.90;;;6.25;;
80185;SDS011;69904;52.122;5.422;2023-07-09T11:00:43;10.10;;;6.93;;
80185;SDS011;69904;52.122;5.422;2023-07-09T11:03:17;10.68;;;6.10;;
80185;SDS011;69904;52.122;5.422;2023-07-09T11:05:48;9.25;;;6.82;;
80185;SDS011;69904;52.122;5.422;2023-07-09T11:08:17;11.25;;;6.78;;
80185;SDS011;69904;52.122;5.422;2023-07-09T11:10:51;11.88;;;7.05;;
80185;SDS011;69904;52.122;5.422;2023-07-09T11:16:28;10.57;;;6.45;;
80185;SDS011;69904;52.122;5.422;2023-07-09T11:19:01;8.57;;;6.13;;
80185;SDS011;69904;52.122;5.422;2023-07-09T11:21:30;12.95;;;7.60;;
80185;SDS011;69904;52.122;5.422;2023-07-09T11:23:57;11.13;;;7.07;;
80185;SDS011;69904;52.122;5.422;2023-07-09T11:26:27;9.15;;;6.95;;
80185;SDS011;69904;52.122;5.422;2023-07-09T11:31:40;11.13;;;7.25;;
80185;SDS011;69904;52.122;5.422;2023-07-09T11:39:22;10.85;;;7.47;;
80185;SDS011;69904;52.122;5.422;2023-07-09T11:41:55;12.50;;;8.30;;
80185;SDS011;69904;52.122;5.422;2023-07-09T11:44:23;12.75;;;8.60;;
80185;SDS011;69904;52.122;5.422;2023-07-09T11:47:06;16.92;;;9.05;;
80185;SDS011;69904;52.122;5.422;2023-07-09T11:49:46;11.15;;;8.48;;
80185;SDS011;69904;52.122;5.422;2023-07-09T11:52:20;12.52;;;8.52;;
80185;SDS011;69904;52.122;5.422;2023-07-09T11:54:52;13.60;;;7.68;;
80185;SDS011;69904;52.122;5.422;2023-07-09T11:57:20;12.63;;;8.77;;
80185;SDS011;69904;52.122;5.422;2023-07-09T11:59:46;12.43;;;8.07;;
80185;SDS011;69904;52.122;5.422;2023-07-09T12:02:17;12.68;;;8.35;;
80185;SDS011;69904;52.122;5.422;2023-07-09T12:04:47;10.38;;;7.80;;
80185;SDS011;69904;52.122;5.422;2023-07-09T12:07:16;9.18;;;7.32;;
80185;SDS011;69904;52.122;5.422;2023-07-09T12:09:46;6.90;;;5.25;;
80185;SDS011;69904;52.122;5.422;2023-07-09T12:12:20;8.60;;;5.63;;
80185;SDS011;69904;52.122;5.422;2023-07-09T12:14:49;9.25;;;5.00;;
80185;SDS011;69904;52.122;5.422;2023-07-09T12:17:16;6.53;;;4.72;;
80185;SDS011;69904;52.122;5.422;2023-07-09T12:19:42;6.75;;;5.05;;
80185;SDS011;69904;52.122;5.422;2023-07-09T12:22:11;5.93;;;4.15;;
80185;SDS011;69904;52.122;5.422;2023-07-09T12:24:44;7.15;;;4.32;;
80185;SDS011;69904;52.122;5.422;2023-07-09T12:27:46;7.80;;;4.30;;
80185;SDS011;69904;52.122;5.422;2023-07-09T12:30:11;7.40;;;4.50;;
80185;SDS011;69904;52.122;5.422;2023-07-09T12:32:45;7.55;;;4.55;;
80185;SDS011;69904;52.122;5.422;2023-07-09T12:35:13;11.30;;;5.40;;
80185;SDS011;69904;52.122;5.422;2023-07-09T12:37:41;7.55;;;4.55;;
80185;SDS011;69904;52.122;5.422;2023-07-09T12:42:46;6.68;;;4.70;;
80185;SDS011;69904;52.122;5.422;2023-07-09T12:45:17;7.82;;;5.00;;
80185;SDS011;69904;52.122;5.422;2023-07-09T12:47:46;6.68;;;4.35;;
80185;SDS011;69904;52.122;5.422;2023-07-09T12:50:32;7.50;;;4.30;;
80185;SDS011;69904;52.122;5.422;2023-07-09T12:53:03;5.22;;;4.22;;
80185;SDS011;69904;52.122;5.422;2023-07-09T12:55:41;9.00;;;4.50;;
80185;SDS011;69904;52.122;5.422;2023-07-09T12:58:11;6.70;;;4.65;;
80185;SDS011;69904;52.122;5.422;2023-07-09T13:00:47;6.65;;;4.47;;
80185;SDS011;69904;52.122;5.422;2023-07-09T13:03:18;6.15;;;4.43;;
80185;SDS011;69904;52.122;5.422;2023-07-09T13:05:51;7.75;;;4.45;;
80185;SDS011;69904;52.122;5.422;2023-07-09T13:08:30;8.18;;;4.80;;
80185;SDS011;69904;52.122;5.422;2023-07-09T13:11:14;17.65;;;5.15;;
80185;SDS011;69904;52.122;5.422;2023-07-09T13:13:58;8.02;;;4.75;;
80185;SDS011;69904;52.122;5.422;2023-07-09T13:16:26;7.47;;;4.95;;
80185;SDS011;69904;52.122;5.422;2023-07-09T13:18:52;8.25;;;5.60;;
80185;SDS011;69904;52.122;5.422;2023-07-09T13:21:20;6.38;;;4.22;;
80185;SDS011;69904;52.122;5.422;2023-07-09T13:23:48;6.80;;;4.60;;
80185;SDS011;69904;52.122;5.422;2023-07-09T13:26:15;8.77;;;3.90;;
80185;SDS011;69904;52.122;5.422;2023-07-09T13:28:42;6.97;;;4.07;;
80185;SDS011;69904;52.122;5.422;2023-07-09T13:31:17;5.43;;;3.63;;
80185;SDS011;69904;52.122;5.422;2023-07-09T13:33:50;7.00;;;3.95;;
80185;SDS011;69904;52.122;5.422;2023-07-09T13:36:20;11.98;;;5.45;;
80185;SDS011;69904;52.122;5.422;2023-07-09T13:38:47;8.32;;;4.50;;
80185;SDS011;69904;52.122;5.422;2023-07-09T13:41:15;8.23;;;4.82;;
80185;SDS011;69904;52.122;5.422;2023-07-09T13:43:44;8.20;;;4.68;;
80185;SDS011;69904;52.122;5.422;2023-07-09T13:46:12;9.52;;;5.25;;
80185;SDS011;69904;52.122;5.422;2023-07-09T13:48:40;6.30;;;3.78;;
80185;SDS011;69904;52.122;5.422;2023-07-09T13:51:21;6.35;;;3.75;;
80185;SDS011;69904;52.122;5.422;2023-07-09T13:53:50;5.20;;;3.63;;
80185;SDS011;69904;52.122;5.422;2023-07-09T13:56:19;7.93;;;4.22;;
80185;SDS011;69904;52.122;5.422;2023-07-09T13:58:45;6.82;;;3.83;;
80185;SDS011;69904;52.122;5.422;2023-07-09T14:01:13;5.22;;;3.50;;
80185;SDS011;69904;52.122;5.422;2023-07-09T14:03:41;8.48;;;4.55;;
80185;SDS011;69904;52.122;5.422;2023-07-09T14:06:10;6.53;;;3.67;;
80185;SDS011;69904;52.122;5.422;2023-07-09T14:08:38;7.43;;;3.97;;
80185;SDS011;69904;52.122;5.422;2023-07-09T14:11:10;4.85;;;3.17;;
80185;SDS011;69904;52.122;5.422;2023-07-09T14:13:37;4.82;;;3.30;;
80185;SDS011;69904;52.122;5.422;2023-07-09T14:16:04;6.00;;;2.70;;
80185;SDS011;69904;52.122;5.422;2023-07-09T14:18:32;6.05;;;2.50;;
80185;SDS011;69904;52.122;5.422;2023-07-09T14:20:59;6.35;;;2.70;;
80185;SDS011;69904;52.122;5.422;2023-07-09T14:23:25;6.05;;;2.80;;
80185;SDS011;69904;52.122;5.422;2023-07-09T14:25:52;5.18;;;2.55;;
80185;SDS011;69904;52.122;5.422;2023-07-09T14:28:19;4.28;;;2.10;;
80185;SDS011;69904;52.122;5.422;2023-07-09T14:30:48;5.57;;;2.42;;
80185;SDS011;69904;52.122;5.422;2023-07-09T14:33:17;6.35;;;2.63;;
80185;SDS011;69904;52.122;5.422;2023-07-09T14:35:46;6.28;;;2.85;;
80185;SDS011;69904;52.122;5.422;2023-07-09T14:38:15;6.70;;;2.22;;
80185;SDS011;69904;52.122;5.422;2023-07-09T14:40:45;5.38;;;2.60;;
80185;SDS011;69904;52.122;5.422;2023-07-09T14:43:12;3.58;;;2.40;;
80185;SDS011;69904;52.122;5.422;2023-07-09T14:45:39;4.85;;;2.50;;
80185;SDS011;69904;52.122;5.422;2023-07-09T14:48:13;5.50;;;2.85;;
80185;SDS011;69904;52.122;5.422;2023-07-09T14:50:41;10.70;;;3.15;;
80185;SDS011;69904;52.122;5.422;2023-07-09T14:53:17;6.20;;;2.70;;
80185;SDS011;69904;52.122;5.422;2023-07-09T14:55:48;4.47;;;2.30;;
80185;SDS011;69904;52.122;5.422;2023-07-09T14:58:16;6.35;;;2.60;;
80185;SDS011;69904;52.122;5.422;2023-07-09T15:00:44;5.88;;;2.10;;
80185;SDS011;69904;52.122;5.422;2023-07-09T15:03:20;7.25;;;2.60;;
80185;SDS011;69904;52.122;5.422;2023-07-09T15:05:49;7.20;;;2.33;;
80185;SDS011;69904;52.122;5.422;2023-07-09T15:08:18;6.82;;;2.72;;
80185;SDS011;69904;52.122;5.422;2023-07-09T15:10:48;4.82;;;2.25;;
80185;SDS011;69904;52.122;5.422;2023-07-09T15:13:18;6.18;;;2.55;;
80185;SDS011;69904;52.122;5.422;2023-07-09T15:15:46;4.47;;;2.20;;
80185;SDS011;69904;52.122;5.422;2023-07-09T15:18:14;5.68;;;2.00;;
80185;SDS011;69904;52.122;5.422;2023-07-09T15:20:42;5.00;;;2.05;;
80185;SDS011;69904;52.122;5.422;2023-07-09T15:23:13;4.95;;;2.10;;
80185;SDS011;69904;52.122;5.422;2023-07-09T15:25:40;3.78;;;1.50;;
80185;SDS011;69904;52.122;5.422;2023-07-09T15:28:08;7.38;;;2.10;;
80185;SDS011;69904;52.122;5.422;2023-07-09T15:30:36;6.75;;;1.90;;
80185;SDS011;69904;52.122;5.422;2023-07-09T15:33:03;4.97;;;2.25;;
80185;SDS011;69904;52.122;5.422;2023-07-09T15:35:35;5.32;;;2.60;;
80185;SDS011;69904;52.122;5.422;2023-07-09T15:38:11;4.47;;;2.47;;
80185;SDS011;69904;52.122;5.422;2023-07-09T15:40:53;7.43;;;3.20;;
80185;SDS011;69904;52.122;5.422;2023-07-09T15:43:19;7.32;;;3.53;;
80185;SDS011;69904;52.122;5.422;2023-07-09T15:45:48;6.85;;;3.60;;
80185;SDS011;69904;52.122;5.422;2023-07-09T15:50:51;7.85;;;3.42;;
80185;SDS011;69904;52.122;5.422;2023-07-09T15:53:21;7.93;;;4.07;;
80185;SDS011;69904;52.122;5.422;2023-07-09T15:55:48;6.90;;;3.72;;
80185;SDS011;69904;52.122;5.422;2023-07-09T15:58:26;8.60;;;4.00;;
80185;SDS011;69904;52.122;5.422;2023-07-09T16:00:55;7.32;;;3.90;;
80185;SDS011;69904;52.122;5.422;2023-07-09T16:03:22;8.82;;;4.22;;
80185;SDS011;69904;52.122;5.422;2023-07-09T16:05:49;9.88;;;5.00;;
80185;SDS011;69904;52.122;5.422;2023-07-09T16:08:15;10.23;;;5.72;;